createdAt,value
2016-11-28T00:00:45.723Z,0
2016-11-28T00:01:45.768Z,0
2016-11-28T00:02:45.848Z,0
2016-11-28T00:03:45.878Z,0
2016-11-28T00:04:45.932Z,0
2016-11-28T00:05:46.000Z,0
2016-11-28T00:06:46.082Z,0
2016-11-28T00:07:46.131Z,0
2016-11-28T00:08:46.168Z,0
2016-11-28T00:09:46.244Z,0
2016-11-28T00:10:46.281Z,0
2016-11-28T00:11:46.359Z,0
2016-11-28T00:12:46.415Z,0
2016-11-28T00:13:46.686Z,0
2016-11-28T00:14:46.722Z,0
2016-11-28T00:15:46.583Z,0
2016-11-28T00:16:46.620Z,0
2016-11-28T00:17:46.696Z,0
2016-11-28T00:18:46.735Z,0
2016-11-28T00:19:46.793Z,0
2016-11-28T00:20:46.875Z,0
2016-11-28T00:21:46.933Z,0
2016-11-28T00:22:46.997Z,0
2016-11-28T00:23:47.026Z,0
2016-11-28T00:24:47.096Z,0
2016-11-28T00:25:47.162Z,0
2016-11-28T00:26:47.218Z,0
2016-11-28T00:27:47.302Z,0
2016-11-28T00:28:47.318Z,0
2016-11-28T00:29:47.386Z,0
2016-11-28T00:30:47.435Z,0
2016-11-28T00:31:47.477Z,0
2016-11-28T00:32:47.536Z,0
2016-11-28T00:33:47.597Z,0
2016-11-28T00:34:47.650Z,0
2016-11-28T00:35:47.741Z,0
2016-11-28T00:36:47.765Z,0
2016-11-28T00:37:47.833Z,0
2016-11-28T00:38:47.901Z,0
2016-11-28T00:39:47.946Z,0
2016-11-28T00:40:47.987Z,0
2016-11-28T00:41:48.275Z,0
2016-11-28T00:42:48.418Z,0
2016-11-28T00:43:48.158Z,0
2016-11-28T00:44:48.248Z,0
2016-11-28T00:45:48.294Z,0
2016-11-28T00:46:48.354Z,0
2016-11-28T00:47:48.422Z,0
2016-11-28T00:48:48.451Z,0
2016-11-28T00:49:48.507Z,0
2016-11-28T00:50:48.563Z,0
2016-11-28T00:51:48.621Z,0
2016-11-28T00:52:48.696Z,0
2016-11-28T00:53:48.731Z,0
2016-11-28T00:54:48.794Z,0
2016-11-28T00:55:48.861Z,0
2016-11-28T00:56:49.144Z,0
2016-11-28T00:57:48.986Z,0
2016-11-28T00:58:49.013Z,0
2016-11-28T00:59:49.075Z,0
2016-11-28T01:00:49.130Z,0
2016-11-28T01:01:49.193Z,0
2016-11-28T01:02:49.248Z,0
2016-11-28T01:03:49.302Z,0
2016-11-28T01:04:49.377Z,0
2016-11-28T01:05:49.441Z,0
2016-11-28T01:06:49.483Z,0
2016-11-28T01:07:49.738Z,0
2016-11-28T01:08:49.817Z,0
2016-11-28T01:09:49.671Z,0
2016-11-28T01:10:49.733Z,0
2016-11-28T01:11:49.800Z,0
2016-11-28T01:12:49.815Z,0
2016-11-28T01:13:49.929Z,0
2016-11-28T01:14:49.963Z,0
2016-11-28T01:15:50.011Z,0
2016-11-28T01:16:50.070Z,0
2016-11-28T01:17:50.145Z,0
2016-11-28T01:18:50.163Z,0
2016-11-28T01:19:50.238Z,0
2016-11-28T01:20:50.277Z,0
2016-11-28T01:21:50.339Z,0
2016-11-28T01:22:50.422Z,0
2016-11-28T01:23:50.472Z,0
2016-11-28T01:24:50.512Z,0
2016-11-28T01:25:50.588Z,0
2016-11-28T01:26:50.642Z,0
2016-11-28T01:27:50.698Z,0
2016-11-28T01:28:50.748Z,0
2016-11-28T01:29:50.822Z,0
2016-11-28T01:30:50.848Z,0
2016-11-28T01:31:50.935Z,0
2016-11-28T01:32:50.979Z,0
2016-11-28T01:33:51.059Z,0
2016-11-28T01:34:51.081Z,0
2016-11-28T01:35:51.323Z,0
2016-11-28T01:36:51.203Z,0
2016-11-28T01:37:51.246Z,0
2016-11-28T01:38:51.318Z,0
2016-11-28T01:39:51.384Z,0
2016-11-28T01:40:51.446Z,0
2016-11-28T01:41:51.487Z,0
2016-11-28T01:42:51.553Z,0
2016-11-28T01:43:51.613Z,0
2016-11-28T01:44:51.696Z,0
2016-11-28T01:45:51.717Z,0
2016-11-28T01:46:51.755Z,0
2016-11-28T01:47:51.926Z,0
2016-11-28T01:48:51.882Z,0
2016-11-28T01:49:51.945Z,0
2016-11-28T01:50:52.010Z,0
2016-11-28T01:51:52.053Z,0
2016-11-28T01:52:52.118Z,0
2016-11-28T01:53:52.158Z,0
2016-11-28T01:54:52.242Z,0
2016-11-28T01:55:52.277Z,0
2016-11-28T01:56:52.324Z,0
2016-11-28T01:57:52.392Z,0
2016-11-28T01:58:52.461Z,0
2016-11-28T01:59:52.502Z,0
2016-11-28T02:00:52.561Z,0
2016-11-28T02:01:52.620Z,0
2016-11-28T02:02:52.886Z,0
2016-11-28T02:03:52.739Z,0
2016-11-28T02:04:52.790Z,0
2016-11-28T02:05:52.856Z,0
2016-11-28T02:06:52.911Z,0
2016-11-28T02:07:52.953Z,0
2016-11-28T02:08:53.046Z,0
2016-11-28T02:09:53.075Z,0
2016-11-28T02:10:53.136Z,0
2016-11-28T02:11:53.171Z,0
2016-11-28T02:12:53.245Z,0
2016-11-28T02:13:53.309Z,0
2016-11-28T02:14:53.348Z,0
2016-11-28T02:15:53.443Z,0
2016-11-28T02:16:53.470Z,0
2016-11-28T02:17:53.547Z,0
2016-11-28T02:18:53.587Z,0
2016-11-28T02:19:53.651Z,0
2016-11-28T02:20:53.690Z,0
2016-11-28T02:21:53.764Z,0
2016-11-28T02:22:53.837Z,0
2016-11-28T02:23:53.877Z,0
2016-11-28T02:24:53.940Z,0
2016-11-28T02:25:53.977Z,0
2016-11-28T02:26:54.047Z,0
2016-11-28T02:27:54.090Z,0
2016-11-28T02:29:09.082Z,0
2016-11-28T02:29:54.412Z,0
2016-11-28T02:30:54.295Z,0
2016-11-28T02:31:54.319Z,0
2016-11-28T02:32:54.389Z,0
2016-11-28T02:33:54.465Z,0
2016-11-28T02:34:54.498Z,0
2016-11-28T02:35:54.558Z,0
2016-11-28T02:36:54.615Z,0
2016-11-28T02:37:54.679Z,0
2016-11-28T02:38:54.749Z,0
2016-11-28T02:39:54.785Z,0
2016-11-28T02:40:54.849Z,0
2016-11-28T02:41:54.924Z,0
2016-11-28T02:42:54.967Z,0
2016-11-28T02:43:55.026Z,0
2016-11-28T02:44:55.072Z,0
2016-11-28T02:45:55.144Z,0
2016-11-28T02:46:55.194Z,0
2016-11-28T02:47:55.226Z,0
2016-11-28T02:48:55.300Z,0
2016-11-28T02:49:55.384Z,0
2016-11-28T02:50:55.412Z,0
2016-11-28T02:51:55.764Z,0
2016-11-28T02:52:55.512Z,0
2016-11-28T02:53:55.573Z,0
2016-11-28T02:54:55.641Z,0
2016-11-28T02:55:55.690Z,0
2016-11-28T02:56:55.954Z,0
2016-11-28T02:57:55.809Z,0
2016-11-28T02:58:55.878Z,0
2016-11-28T02:59:55.948Z,0
2016-11-28T03:00:55.989Z,0
2016-11-28T03:01:56.047Z,0
2016-11-28T03:02:56.090Z,0
2016-11-28T03:03:56.165Z,0
2016-11-28T03:04:56.218Z,0
2016-11-28T03:05:56.265Z,0
2016-11-28T03:06:56.338Z,0
2016-11-28T03:07:56.401Z,0
2016-11-28T03:08:56.454Z,0
2016-11-28T03:09:56.500Z,0
2016-11-28T03:10:56.552Z,0
2016-11-28T03:11:56.617Z,0
2016-11-28T03:12:56.676Z,0
2016-11-28T03:13:56.725Z,0
2016-11-28T03:14:56.788Z,0
2016-11-28T03:15:56.851Z,0
2016-11-28T03:16:56.882Z,0
2016-11-28T03:17:56.975Z,0
2016-11-28T03:18:57.015Z,0
2016-11-28T03:19:57.071Z,0
2016-11-28T03:20:57.125Z,0
2016-11-28T03:21:57.167Z,0
2016-11-28T03:22:57.232Z,0
2016-11-28T03:23:57.294Z,0
2016-11-28T03:24:57.351Z,0
2016-11-28T03:25:57.399Z,0
2016-11-28T03:26:57.463Z,0
2016-11-28T03:27:57.543Z,0
2016-11-28T03:28:57.570Z,0
2016-11-28T03:29:57.650Z,0
2016-11-28T03:30:58.005Z,0
2016-11-28T03:31:57.749Z,0
2016-11-28T03:32:57.810Z,0
2016-11-28T03:33:57.864Z,0
2016-11-28T03:34:57.929Z,0
2016-11-28T03:35:57.986Z,0
2016-11-28T03:36:58.089Z,0
2016-11-28T03:37:58.099Z,0
2016-11-28T03:38:58.157Z,0
2016-11-28T03:39:58.213Z,0
2016-11-28T03:40:58.265Z,0
2016-11-28T03:41:58.333Z,0
2016-11-28T03:42:58.385Z,0
2016-11-28T03:43:58.449Z,0
2016-11-28T03:44:58.499Z,0
2016-11-28T03:45:58.552Z,0
2016-11-28T03:46:58.614Z,0
2016-11-28T03:47:58.676Z,0
2016-11-28T03:48:58.738Z,0
2016-11-28T03:49:58.786Z,0
2016-11-28T03:50:58.857Z,0
2016-11-28T03:51:58.893Z,0
2016-11-28T03:52:58.959Z,0
2016-11-28T03:53:59.008Z,0
2016-11-28T03:54:59.076Z,0
2016-11-28T03:55:59.128Z,0
2016-11-28T03:56:59.165Z,0
2016-11-28T03:57:59.217Z,0
2016-11-28T03:58:59.291Z,0
2016-11-28T03:59:59.338Z,0
2016-11-28T04:00:59.413Z,0
2016-11-28T04:01:59.462Z,0
2016-11-28T04:02:59.517Z,0
2016-11-28T04:03:59.594Z,0
2016-11-28T04:04:59.619Z,0
2016-11-28T04:05:59.690Z,0
2016-11-28T04:06:59.746Z,0
2016-11-28T04:07:59.812Z,0
2016-11-28T04:08:59.882Z,0
2016-11-28T04:09:59.933Z,0
2016-11-28T04:10:59.969Z,0
2016-11-28T04:12:00.029Z,0
2016-11-28T04:13:00.077Z,0
2016-11-28T04:14:00.142Z,0
2016-11-28T04:15:00.221Z,0
2016-11-28T04:16:00.245Z,0
2016-11-28T04:17:00.320Z,0
2016-11-28T04:18:00.363Z,0
2016-11-28T04:19:00.444Z,0
2016-11-28T04:20:00.485Z,0
2016-11-28T04:21:00.532Z,0
2016-11-28T04:22:00.591Z,0
2016-11-28T04:23:00.947Z,0
2016-11-28T04:24:00.735Z,0
2016-11-28T04:25:00.760Z,0
2016-11-28T04:26:00.823Z,0
2016-11-28T04:27:00.878Z,0
2016-11-28T04:28:00.940Z,0
2016-11-28T04:29:01.011Z,0
2016-11-28T04:30:01.071Z,0
2016-11-28T04:31:01.128Z,0
2016-11-28T04:32:01.185Z,0
2016-11-28T04:33:01.221Z,0
2016-11-28T04:34:01.265Z,0
2016-11-28T04:35:01.325Z,0
2016-11-28T04:36:01.395Z,0
2016-11-28T04:37:01.449Z,0
2016-11-28T04:38:01.506Z,0
2016-11-28T04:39:01.563Z,0
2016-11-28T04:40:01.626Z,0
2016-11-28T04:41:01.692Z,0
2016-11-28T04:42:01.726Z,0
2016-11-28T04:43:01.780Z,0
2016-11-28T04:44:01.832Z,0
2016-11-28T04:45:01.895Z,0
2016-11-28T04:46:01.980Z,0
2016-11-28T04:47:02.319Z,0
2016-11-28T04:48:02.081Z,0
2016-11-28T04:49:02.125Z,0
2016-11-28T04:50:02.194Z,0
2016-11-28T04:51:02.233Z,0
2016-11-28T04:52:02.333Z,0
2016-11-28T04:53:02.357Z,0
2016-11-28T04:54:02.414Z,0
2016-11-28T04:55:02.472Z,0
2016-11-28T04:56:02.537Z,0
2016-11-28T04:57:02.590Z,0
2016-11-28T04:58:02.637Z,0
2016-11-28T04:59:02.701Z,0
2016-11-28T05:00:02.762Z,0
2016-11-28T05:01:02.818Z,0
2016-11-28T05:02:02.899Z,0
2016-11-28T05:03:02.922Z,0
2016-11-28T05:04:03.003Z,0
2016-11-28T05:05:03.033Z,0
2016-11-28T05:06:03.118Z,0
2016-11-28T05:07:03.159Z,0
2016-11-28T05:08:03.195Z,0
2016-11-28T05:09:03.269Z,0
2016-11-28T05:10:03.321Z,0
2016-11-28T05:11:03.394Z,0
2016-11-28T05:12:03.452Z,0
2016-11-28T05:13:03.498Z,0
2016-11-28T05:14:03.544Z,0
2016-11-28T05:15:03.626Z,0
2016-11-28T05:16:03.685Z,0
2016-11-28T05:17:03.715Z,0
2016-11-28T05:18:03.778Z,0
2016-11-28T05:19:03.828Z,0
2016-11-28T05:20:03.898Z,0
2016-11-28T05:21:03.942Z,0
2016-11-28T05:22:03.991Z,0
2016-11-28T05:23:04.065Z,0
2016-11-28T05:24:04.124Z,0
2016-11-28T05:25:04.186Z,0
2016-11-28T05:26:04.215Z,0
2016-11-28T05:27:04.531Z,0
2016-11-28T05:28:04.365Z,0
2016-11-28T05:29:04.418Z,0
2016-11-28T05:30:04.775Z,0
2016-11-28T05:31:04.825Z,0
2016-11-28T05:32:04.596Z,0
2016-11-28T05:33:04.620Z,0
2016-11-28T05:34:04.686Z,0
2016-11-28T05:35:04.754Z,0
2016-11-28T05:36:04.817Z,0
2016-11-28T05:37:04.857Z,0
2016-11-28T05:38:04.931Z,0
2016-11-28T05:39:04.976Z,0
2016-11-28T05:40:05.011Z,0
2016-11-28T05:41:05.092Z,0
2016-11-28T05:42:05.140Z,0
2016-11-28T05:43:05.200Z,0
2016-11-28T05:44:05.281Z,0
2016-11-28T05:45:05.315Z,0
2016-11-28T05:46:05.676Z,0
2016-11-28T05:47:05.438Z,0
2016-11-28T05:48:05.494Z,0
2016-11-28T05:49:05.528Z,0
2016-11-28T05:50:05.598Z,0
2016-11-28T05:51:05.659Z,0
2016-11-28T05:52:05.692Z,0
2016-11-28T05:53:05.767Z,0
2016-11-28T05:54:05.843Z,0
2016-11-28T05:55:05.878Z,0
2016-11-28T05:56:05.940Z,0
2016-11-28T05:57:05.984Z,0
2016-11-28T05:58:06.059Z,0
2016-11-28T05:59:06.105Z,0
2016-11-28T06:00:06.163Z,0
2016-11-28T06:01:06.239Z,0
2016-11-28T06:02:06.288Z,0
2016-11-28T06:03:06.363Z,0
2016-11-28T06:04:06.370Z,0
2016-11-28T06:05:06.460Z,0
2016-11-28T06:06:06.487Z,0
2016-11-28T06:07:06.563Z,0
2016-11-28T06:08:06.605Z,0
2016-11-28T06:09:06.670Z,0
2016-11-28T06:10:06.735Z,0
2016-11-28T06:11:06.804Z,0
2016-11-28T06:12:07.142Z,0
2016-11-28T06:13:06.904Z,0
2016-11-28T06:14:06.971Z,0
2016-11-28T06:15:06.995Z,0
2016-11-28T06:16:07.082Z,4
2016-11-28T06:17:07.111Z,4
2016-11-28T06:18:07.193Z,4
2016-11-28T06:19:07.235Z,4
2016-11-28T06:20:07.311Z,0
2016-11-28T06:21:07.373Z,4
2016-11-28T06:22:07.392Z,4
2016-11-28T06:23:07.456Z,4
2016-11-28T06:24:07.505Z,4
2016-11-28T06:25:07.572Z,4
2016-11-28T06:26:07.649Z,8
2016-11-28T06:27:07.689Z,12
2016-11-28T06:28:07.742Z,8
2016-11-28T06:29:07.802Z,12
2016-11-28T06:30:07.866Z,12
2016-11-28T06:31:07.935Z,16
2016-11-28T06:32:07.981Z,16
2016-11-28T06:33:08.041Z,16
2016-11-28T06:34:08.108Z,20
2016-11-28T06:35:08.151Z,24
2016-11-28T06:36:08.204Z,24
2016-11-28T06:37:08.259Z,24
2016-11-28T06:38:08.318Z,32
2016-11-28T06:39:08.370Z,32
2016-11-28T06:40:08.409Z,32
2016-11-28T06:41:08.507Z,40
2016-11-28T06:42:08.531Z,44
2016-11-28T06:43:08.595Z,48
2016-11-28T06:44:08.656Z,60
2016-11-28T06:45:08.705Z,80
2016-11-28T06:46:08.787Z,88
2016-11-28T06:47:08.828Z,100
2016-11-28T06:48:08.884Z,112
2016-11-28T06:49:08.948Z,120
2016-11-28T06:50:09.015Z,128
2016-11-28T06:51:09.049Z,140
2016-11-28T06:52:09.117Z,144
2016-11-28T06:53:09.161Z,152
2016-11-28T06:54:09.234Z,164
2016-11-28T06:55:09.277Z,180
2016-11-28T06:56:09.326Z,192
2016-11-28T06:57:09.393Z,200
2016-11-28T06:58:09.464Z,216
2016-11-28T06:59:09.519Z,228
2016-11-28T07:00:09.557Z,236
2016-11-28T07:01:09.606Z,248
2016-11-28T07:02:09.687Z,252
2016-11-28T07:03:09.733Z,252
2016-11-28T07:04:09.780Z,256
2016-11-28T07:05:09.847Z,260
2016-11-28T07:06:09.915Z,268
2016-11-28T07:07:09.957Z,280
2016-11-28T07:08:10.006Z,292
2016-11-28T07:09:10.078Z,312
2016-11-28T07:10:10.128Z,332
2016-11-28T07:11:10.200Z,352
2016-11-28T07:12:10.257Z,368
2016-11-28T07:13:10.313Z,380
2016-11-28T07:14:10.334Z,392
2016-11-28T07:15:10.426Z,396
2016-11-28T07:16:10.484Z,408
2016-11-28T07:17:10.511Z,416
2016-11-28T07:18:10.592Z,424
2016-11-28T07:19:10.615Z,436
2016-11-28T07:20:10.696Z,444
2016-11-28T07:21:10.761Z,452
2016-11-28T07:22:10.815Z,464
2016-11-28T07:23:10.855Z,472
2016-11-28T07:24:10.921Z,484
2016-11-28T07:25:10.967Z,492
2016-11-28T07:26:11.022Z,512
2016-11-28T07:27:11.078Z,520
2016-11-28T07:28:11.139Z,532
2016-11-28T07:29:11.203Z,540
2016-11-28T07:30:11.259Z,552
2016-11-28T07:31:11.316Z,560
2016-11-28T07:32:11.362Z,568
2016-11-28T07:33:11.430Z,576
2016-11-28T07:34:11.469Z,588
2016-11-28T07:35:11.547Z,596
2016-11-28T07:36:11.583Z,608
2016-11-28T07:37:11.643Z,616
2016-11-28T07:38:11.743Z,620
2016-11-28T07:39:11.774Z,628
2016-11-28T07:40:12.155Z,636
2016-11-28T07:41:12.193Z,644
2016-11-28T07:42:11.948Z,652
2016-11-28T07:43:12.001Z,660
2016-11-28T07:44:12.037Z,664
2016-11-28T07:45:12.089Z,676
2016-11-28T07:46:12.151Z,684
2016-11-28T07:47:12.215Z,688
2016-11-28T07:48:12.263Z,700
2016-11-28T07:49:12.338Z,708
2016-11-28T07:50:12.384Z,716
2016-11-28T07:51:12.465Z,724
2016-11-28T07:52:12.511Z,728
2016-11-28T07:53:12.560Z,720
2016-11-28T07:54:12.605Z,724
2016-11-28T07:55:12.686Z,740
2016-11-28T07:56:12.726Z,740
2016-11-28T07:57:12.768Z,744
2016-11-28T07:58:12.843Z,752
2016-11-28T07:59:12.894Z,764
2016-11-28T08:00:12.959Z,780
2016-11-28T08:01:13.016Z,792
2016-11-28T08:02:13.086Z,800
2016-11-28T08:03:13.127Z,796
2016-11-28T08:04:13.162Z,800
2016-11-28T08:05:13.257Z,796
2016-11-28T08:06:13.304Z,820
2016-11-28T08:07:13.343Z,836
2016-11-28T08:08:13.404Z,844
2016-11-28T08:09:13.478Z,852
2016-11-28T08:10:13.511Z,856
2016-11-28T08:11:13.600Z,868
2016-11-28T08:12:13.650Z,868
2016-11-28T08:13:13.706Z,880
2016-11-28T08:14:13.729Z,888
2016-11-28T08:15:13.795Z,896
2016-11-28T08:16:13.861Z,904
2016-11-28T08:17:13.914Z,908
2016-11-28T08:18:13.979Z,920
2016-11-28T08:19:14.031Z,924
2016-11-28T08:20:14.092Z,932
2016-11-28T08:21:14.126Z,944
2016-11-28T08:22:14.201Z,948
2016-11-28T08:23:14.275Z,948
2016-11-28T08:24:14.315Z,956
2016-11-28T08:25:14.375Z,960
2016-11-28T08:26:14.466Z,960
2016-11-28T08:27:14.501Z,964
2016-11-28T08:28:14.533Z,968
2016-11-28T08:29:14.599Z,972
2016-11-28T08:30:14.642Z,972
2016-11-28T08:31:14.717Z,980
2016-11-28T08:32:14.794Z,980
2016-11-28T08:33:14.820Z,984
2016-11-28T08:34:14.900Z,984
2016-11-28T08:35:14.936Z,984
2016-11-28T08:36:15.016Z,984
2016-11-28T08:37:15.036Z,984
2016-11-28T08:38:15.114Z,988
2016-11-28T08:39:15.161Z,992
2016-11-28T08:40:15.230Z,988
2016-11-28T08:41:15.300Z,992
2016-11-28T08:42:15.339Z,992
2016-11-28T08:43:15.417Z,992
2016-11-28T08:44:15.471Z,992
2016-11-28T08:45:15.532Z,996
2016-11-28T08:46:15.565Z,1000
2016-11-28T08:47:15.617Z,1000
2016-11-28T08:48:15.703Z,1004
2016-11-28T08:49:15.753Z,1004
2016-11-28T08:50:15.803Z,1004
2016-11-28T08:51:15.867Z,1012
2016-11-28T08:52:15.907Z,1016
2016-11-28T08:53:15.961Z,1016
2016-11-28T08:54:16.049Z,1024
2016-11-28T08:55:16.089Z,1028
2016-11-28T08:56:16.141Z,1032
2016-11-28T08:57:16.211Z,1032
2016-11-28T08:58:16.258Z,1036
2016-11-28T08:59:16.311Z,1040
2016-11-28T09:00:16.381Z,1048
2016-11-28T09:01:16.446Z,1048
2016-11-28T09:02:16.486Z,1048
2016-11-28T09:03:16.561Z,1052
2016-11-28T09:04:16.596Z,1052
2016-11-28T09:05:16.640Z,1052
2016-11-28T09:06:16.846Z,1056
2016-11-28T09:07:16.770Z,1056
2016-11-28T09:08:16.836Z,1056
2016-11-28T09:09:16.902Z,1052
2016-11-28T09:10:16.937Z,1056
2016-11-28T09:11:16.998Z,1056
2016-11-28T09:12:17.037Z,1056
2016-11-28T09:13:17.110Z,1056
2016-11-28T09:14:17.164Z,1060
2016-11-28T09:15:17.260Z,1060
2016-11-28T09:16:17.268Z,1064
2016-11-28T09:17:17.338Z,1060
2016-11-28T09:18:17.386Z,1060
2016-11-28T09:19:17.453Z,1060
2016-11-28T09:20:17.524Z,1064
2016-11-28T09:21:17.574Z,1072
2016-11-28T09:22:17.617Z,1072
2016-11-28T09:23:17.683Z,1072
2016-11-28T09:24:17.744Z,1072
2016-11-28T09:25:17.787Z,1084
2016-11-28T09:26:17.867Z,1084
2016-11-28T09:27:17.937Z,1084
2016-11-28T09:28:17.975Z,1092
2016-11-28T09:29:18.027Z,1092
2016-11-28T09:30:18.125Z,1100
2016-11-28T09:31:18.149Z,1108
2016-11-28T09:32:18.196Z,1108
2016-11-28T09:33:18.262Z,1108
2016-11-28T09:34:18.328Z,1108
2016-11-28T09:35:18.388Z,1116
2016-11-28T09:36:18.449Z,1124
2016-11-28T09:37:18.498Z,1128
2016-11-28T09:38:18.566Z,1136
2016-11-28T09:39:18.623Z,1144
2016-11-28T09:40:18.680Z,1156
2016-11-28T09:41:18.740Z,1160
2016-11-28T09:42:18.796Z,1168
2016-11-28T09:43:18.846Z,1180
2016-11-28T09:44:18.891Z,1192
2016-11-28T09:45:18.947Z,1204
2016-11-28T09:46:19.026Z,1216
2016-11-28T09:47:19.067Z,1216
2016-11-28T09:48:19.115Z,1224
2016-11-28T09:49:19.185Z,1232
2016-11-28T09:50:19.240Z,1240
2016-11-28T09:51:19.290Z,1244
2016-11-28T09:52:19.350Z,1256
2016-11-28T09:53:19.416Z,1264
2016-11-28T09:54:19.481Z,1276
2016-11-28T09:55:19.509Z,1284
2016-11-28T09:56:19.604Z,1296
2016-11-28T09:57:19.641Z,1304
2016-11-28T09:58:19.703Z,1316
2016-11-28T09:59:19.761Z,1324
2016-11-28T10:00:19.813Z,1340
2016-11-28T10:01:19.888Z,1348
2016-11-28T10:02:19.928Z,1356
2016-11-28T10:03:20.008Z,1364
2016-11-28T10:04:20.065Z,1372
2016-11-28T10:05:20.120Z,1380
2016-11-28T10:06:20.171Z,1388
2016-11-28T10:07:20.206Z,1396
2016-11-28T10:08:20.262Z,1408
2016-11-28T10:09:20.340Z,1412
2016-11-28T10:10:20.390Z,1424
2016-11-28T10:11:20.463Z,1428
2016-11-28T10:12:20.519Z,1436
2016-11-28T10:13:20.557Z,1444
2016-11-28T10:14:20.630Z,1452
2016-11-28T10:15:20.664Z,1464
2016-11-28T10:16:20.770Z,1472
2016-11-28T10:17:20.806Z,1476
2016-11-28T10:18:20.861Z,1484
2016-11-28T10:19:20.929Z,1484
2016-11-28T10:20:20.981Z,1492
2016-11-28T10:21:21.038Z,1500
2016-11-28T10:22:21.073Z,1504
2016-11-28T10:23:21.143Z,1512
2016-11-28T10:24:21.208Z,1516
2016-11-28T10:25:21.589Z,1520
2016-11-28T10:26:21.338Z,1528
2016-11-28T10:27:21.386Z,1532
2016-11-28T10:28:21.423Z,1536
2016-11-28T10:29:21.500Z,1540
2016-11-28T10:30:21.552Z,1552
2016-11-28T10:31:21.596Z,1560
2016-11-28T10:32:22.015Z,1560
2016-11-28T10:33:21.743Z,1564
2016-11-28T10:34:21.782Z,1568
2016-11-28T10:35:21.849Z,1572
2016-11-28T10:36:21.925Z,1580
2016-11-28T10:37:21.954Z,1584
2016-11-28T10:38:22.025Z,1588
2016-11-28T10:39:22.398Z,1596
2016-11-28T10:40:22.139Z,1596
2016-11-28T10:41:22.195Z,1604
2016-11-28T10:42:22.260Z,1608
2016-11-28T10:43:22.313Z,1612
2016-11-28T10:44:22.365Z,1620
2016-11-28T10:45:22.452Z,1628
2016-11-28T10:46:22.502Z,1628
2016-11-28T10:47:22.549Z,1632
2016-11-28T10:48:22.600Z,1628
2016-11-28T10:49:22.672Z,1632
2016-11-28T10:50:22.708Z,1632
2016-11-28T10:51:22.791Z,1636
2016-11-28T10:52:22.831Z,1592
2016-11-28T10:53:22.899Z,1636
2016-11-28T10:54:22.964Z,1644
2016-11-28T10:55:23.027Z,1644
2016-11-28T10:56:23.074Z,1644
2016-11-28T10:57:23.151Z,1648
2016-11-28T10:58:23.204Z,1652
2016-11-28T10:59:23.253Z,1652
2016-11-28T11:00:23.297Z,1656
2016-11-28T11:01:23.385Z,1656
2016-11-28T11:02:23.456Z,1660
2016-11-28T11:03:23.473Z,1664
2016-11-28T11:04:23.568Z,1672
2016-11-28T11:05:23.857Z,1680
2016-11-28T11:06:23.683Z,1680
2016-11-28T11:07:23.735Z,1688
2016-11-28T11:08:23.786Z,1692
2016-11-28T11:09:24.592Z,1700
2016-11-28T11:10:23.897Z,1704
2016-11-28T11:11:23.965Z,1704
2016-11-28T11:12:24.017Z,1712
2016-11-28T11:13:24.081Z,1716
2016-11-28T11:14:24.146Z,1720
2016-11-28T11:15:24.194Z,1724
2016-11-28T11:16:24.253Z,1728
2016-11-28T11:17:24.333Z,1732
2016-11-28T11:18:24.364Z,1736
2016-11-28T11:19:24.444Z,1740
2016-11-28T11:20:24.495Z,1744
2016-11-28T11:21:24.570Z,1744
2016-11-28T11:22:24.607Z,1752
2016-11-28T11:23:24.665Z,1752
2016-11-28T11:24:24.709Z,1760
2016-11-28T11:25:24.795Z,1764
2016-11-28T11:26:24.860Z,1768
2016-11-28T11:27:24.889Z,1772
2016-11-28T11:28:24.980Z,1776
2016-11-28T11:29:25.042Z,1780
2016-11-28T11:30:25.089Z,1788
2016-11-28T11:31:25.139Z,1788
2016-11-28T11:32:25.203Z,1792
2016-11-28T11:33:25.258Z,1792
2016-11-28T11:34:25.328Z,1796
2016-11-28T11:35:25.377Z,1804
2016-11-28T11:36:25.440Z,1804
2016-11-28T11:37:25.502Z,1816
2016-11-28T11:38:25.557Z,1816
2016-11-28T11:39:25.595Z,1820
2016-11-28T11:40:25.676Z,1832
2016-11-28T11:41:25.729Z,1836
2016-11-28T11:42:25.796Z,1832
2016-11-28T11:43:25.859Z,1844
2016-11-28T11:44:26.055Z,1844
2016-11-28T11:45:25.977Z,1852
2016-11-28T11:46:26.043Z,1856
2016-11-28T11:47:26.080Z,1860
2016-11-28T11:48:26.125Z,1860
2016-11-28T11:49:26.200Z,1868
2016-11-28T11:50:26.264Z,1872
2016-11-28T11:51:26.301Z,1876
2016-11-28T11:52:26.390Z,1880
2016-11-28T11:53:26.432Z,1888
2016-11-28T11:54:26.504Z,1888
2016-11-28T11:55:26.554Z,1896
2016-11-28T11:56:26.603Z,1896
2016-11-28T11:57:26.686Z,1900
2016-11-28T11:58:26.740Z,1904
2016-11-28T11:59:26.882Z,1908
2016-11-28T12:00:26.847Z,1912
2016-11-28T12:01:26.895Z,1916
2016-11-28T12:02:26.970Z,1912
2016-11-28T12:03:27.008Z,1916
2016-11-28T12:04:27.080Z,1920
2016-11-28T12:05:27.141Z,1916
2016-11-28T12:06:27.204Z,1920
2016-11-28T12:07:27.258Z,1924
2016-11-28T12:08:27.319Z,1920
2016-11-28T12:09:27.368Z,1920
2016-11-28T12:10:27.447Z,1916
2016-11-28T12:11:27.810Z,1912
2016-11-28T12:12:27.552Z,1916
2016-11-28T12:13:27.596Z,1916
2016-11-28T12:14:27.700Z,1912
2016-11-28T12:15:27.716Z,1908
2016-11-28T12:16:27.802Z,1904
2016-11-28T12:17:28.164Z,1788
2016-11-28T12:18:27.913Z,1808
2016-11-28T12:19:27.972Z,1808
2016-11-28T12:20:28.048Z,1824
2016-11-28T12:21:28.098Z,1868
2016-11-28T12:22:28.133Z,1836
2016-11-28T12:23:28.205Z,1872
2016-11-28T12:24:28.259Z,1800
2016-11-28T12:25:28.320Z,1796
2016-11-28T12:26:28.374Z,1800
2016-11-28T12:27:28.442Z,1800
2016-11-28T12:28:28.484Z,1864
2016-11-28T12:29:28.549Z,1800
2016-11-28T12:30:29.212Z,1800
2016-11-28T12:31:28.682Z,1908
2016-11-28T12:32:28.720Z,1784
2016-11-28T12:33:28.788Z,1896
2016-11-28T12:34:29.154Z,1792
2016-11-28T12:35:29.100Z,1776
2016-11-28T12:36:28.977Z,1792
2016-11-28T12:37:29.037Z,1776
2016-11-28T12:38:29.070Z,1848
2016-11-28T12:39:29.130Z,1840
2016-11-28T12:40:29.202Z,1840
2016-11-28T12:41:29.243Z,1820
2016-11-28T12:42:29.303Z,1812
2016-11-28T12:43:29.383Z,1800
2016-11-28T12:44:29.407Z,1788
2016-11-28T12:45:30.992Z,1700
2016-11-28T12:46:29.557Z,1704
2016-11-28T12:47:29.586Z,1764
2016-11-28T12:48:29.656Z,1756
2016-11-28T12:49:29.732Z,1744
2016-11-28T12:50:29.786Z,1728
2016-11-28T12:51:29.835Z,1716
2016-11-28T12:52:29.889Z,1704
2016-11-28T12:53:29.944Z,1692
2016-11-28T12:54:30.018Z,1688
2016-11-28T12:55:30.061Z,1676
2016-11-28T12:56:30.128Z,1668
2016-11-28T12:57:30.198Z,1656
2016-11-28T12:58:30.250Z,1648
2016-11-28T12:59:30.295Z,1640
2016-11-28T13:00:30.350Z,1624
2016-11-28T13:01:30.402Z,1612
2016-11-28T13:02:30.479Z,1600
2016-11-28T13:03:30.533Z,1588
2016-11-28T13:04:30.566Z,1580
2016-11-28T13:05:30.627Z,1568
2016-11-28T13:06:30.701Z,1556
2016-11-28T13:07:30.734Z,1548
2016-11-28T13:08:30.831Z,1536
2016-11-28T13:09:30.856Z,1528
2016-11-28T13:10:30.909Z,1516
2016-11-28T13:11:30.983Z,1508
2016-11-28T13:12:31.045Z,1496
2016-11-28T13:13:31.115Z,1484
2016-11-28T13:14:31.173Z,1476
2016-11-28T13:15:31.205Z,1468
2016-11-28T13:16:31.271Z,1456
2016-11-28T13:17:31.348Z,1444
2016-11-28T13:18:31.400Z,1436
2016-11-28T13:19:31.444Z,1424
2016-11-28T13:20:31.498Z,1416
2016-11-28T13:21:31.597Z,1408
2016-11-28T13:22:31.631Z,1396
2016-11-28T13:23:31.691Z,1380
2016-11-28T13:24:31.737Z,1372
2016-11-28T13:25:31.805Z,1364
2016-11-28T13:26:31.857Z,1352
2016-11-28T13:27:31.908Z,1344
2016-11-28T13:28:31.969Z,1340
2016-11-28T13:29:32.026Z,1332
2016-11-28T13:30:32.081Z,1324
2016-11-28T13:31:32.123Z,1316
2016-11-28T13:32:32.182Z,1308
2016-11-28T13:33:32.253Z,1304
2016-11-28T13:34:32.304Z,1300
2016-11-28T13:35:32.368Z,1292
2016-11-28T13:36:32.434Z,1288
2016-11-28T13:37:32.482Z,1284
2016-11-28T13:38:32.558Z,1280
2016-11-28T13:39:32.598Z,1276
2016-11-28T13:40:32.644Z,1268
2016-11-28T13:41:33.007Z,1264
2016-11-28T13:42:33.054Z,1260
2016-11-28T13:43:32.829Z,1256
2016-11-28T13:44:32.870Z,1252
2016-11-28T13:45:32.943Z,1244
2016-11-28T13:46:33.014Z,1240
2016-11-28T13:47:33.064Z,1236
2016-11-28T13:48:33.122Z,1228
2016-11-28T13:49:33.213Z,1224
2016-11-28T13:50:33.208Z,1216
2016-11-28T13:51:33.268Z,1212
2016-11-28T13:52:33.330Z,1208
2016-11-28T13:53:33.391Z,1196
2016-11-28T13:54:33.450Z,1188
2016-11-28T13:55:33.499Z,1180
2016-11-28T13:56:33.574Z,1168
2016-11-28T13:57:33.608Z,1156
2016-11-28T13:58:33.709Z,1100
2016-11-28T13:59:33.748Z,872
2016-11-28T14:00:33.800Z,596
2016-11-28T14:01:33.853Z,380
2016-11-28T14:02:33.912Z,308
2016-11-28T14:03:33.969Z,304